Colorado Springs Aviation Decision Support Information(Rapid Prototype)

Last Page Refresh(page does not auto refresh):
000
FTUS45 KPUB 281120
TAFCOS
TAF
KCOS 281120Z 2812/2912 33012G22KT P6SM SCT150 BKN250
     FM290000 36015G25KT P6SM SCT100 BKN250
     FM291000 35010KT P6SM SCT015=

Please provide any comments or suggestion to the web master email addresse below.


USA.gov is the U.S. government's official web portal to all federal, state and local government web resources and services.